createdAt,value
2022-09-21T00:01:57.350Z,99545.59
2022-09-21T00:04:59.522Z,99545.13
2022-09-21T00:08:03.479Z,99542.00
2022-09-21T00:11:06.225Z,99545.41
2022-09-21T00:14:12.197Z,99546.97
2022-09-21T00:17:14.379Z,99544.91
2022-09-21T00:20:16.943Z,99548.38
2022-09-21T00:23:19.876Z,99548.50
2022-09-21T00:26:24.579Z,99552.22
2022-09-21T00:29:26.732Z,99549.22
2022-09-21T00:32:33.383Z,99549.03
2022-09-21T00:35:35.535Z,99551.13
2022-09-21T00:38:38.069Z,99552.31
2022-09-21T00:41:40.468Z,99551.69
2022-09-21T00:44:42.608Z,99549.50
2022-09-21T00:47:45.461Z,99554.25
2022-09-21T00:50:50.582Z,99547.38
2022-09-21T00:53:55.303Z,99554.28
2022-09-21T00:56:59.856Z,99556.41
2022-09-21T01:00:05.840Z,99554.47
2022-09-21T01:03:09.766Z,99557.75
2022-09-21T01:06:13.564Z,99557.44
2022-09-21T01:09:16.183Z,99560.63
2022-09-21T01:12:43.193Z,99554.41
2022-09-21T01:15:56.024Z,99556.44
2022-09-21T01:19:10.690Z,99563.59
2022-09-21T01:22:25.906Z,99555.84
2022-09-21T01:25:57.599Z,99556.12
2022-09-21T01:29:18.629Z,99559.50
2022-09-21T01:32:48.648Z,99555.41
2022-09-21T01:35:55.650Z,99560.91
2022-09-21T01:39:08.794Z,99564.88
2022-09-21T01:42:13.162Z,99564.56
2022-09-21T01:45:18.565Z,99563.88
2022-09-21T01:48:22.373Z,99560.69
2022-09-21T01:51:27.348Z,99556.63
2022-09-21T01:54:35.893Z,99558.06
2022-09-21T01:57:45.993Z,99560.41
2022-09-21T02:00:49.052Z,99571.03
2022-09-21T02:04:03.347Z,99574.50
2022-09-21T02:07:06.549Z,99567.56
2022-09-21T02:10:11.321Z,99570.28
2022-09-21T02:13:16.647Z,99573.28
2022-09-21T02:16:40.221Z,99580.84
2022-09-21T02:20:24.301Z,99578.50
2022-09-21T02:23:28.824Z,99581.94
2022-09-21T02:26:58.478Z,99579.66
2022-09-21T02:30:16.111Z,99577.56
2022-09-21T02:33:32.444Z,99577.44
2022-09-21T02:36:50.448Z,99572.84
2022-09-21T02:40:03.040Z,99579.50
2022-09-21T02:43:21.815Z,99589.84
2022-09-21T02:46:36.418Z,99577.84
2022-09-21T02:49:42.850Z,99577.31
2022-09-21T02:52:45.005Z,99582.53
2022-09-21T02:55:50.241Z,99588.06
2022-09-21T02:58:57.307Z,99592.62
2022-09-21T03:01:59.885Z,99591.06
2022-09-21T03:05:02.114Z,99588.78
2022-09-21T03:08:04.523Z,99588.66
2022-09-21T03:11:07.100Z,99595.16
2022-09-21T03:14:09.585Z,99598.75
2022-09-21T03:17:11.766Z,99605.22
2022-09-21T03:20:14.019Z,99602.84
2022-09-21T03:23:16.201Z,99604.13
2022-09-21T03:26:22.252Z,99605.00
2022-09-21T03:29:24.390Z,99612.81
2022-09-21T03:32:26.930Z,99611.47
2022-09-21T03:35:29.091Z,99615.59
2022-09-21T03:38:31.359Z,99610.31
2022-09-21T03:41:33.742Z,99612.69
2022-09-21T03:44:37.513Z,99612.75
2022-09-21T03:47:40.217Z,99611.63
2022-09-21T03:50:42.610Z,99622.25
2022-09-21T03:53:44.784Z,99622.72
2022-09-21T03:56:46.963Z,99619.03
2022-09-21T03:59:49.109Z,99625.50
2022-09-21T04:02:51.314Z,99623.72
2022-09-21T04:05:53.526Z,99628.63
2022-09-21T04:08:56.267Z,99627.00
2022-09-21T04:11:58.473Z,99630.19
2022-09-21T04:15:07.497Z,99620.75
2022-09-21T04:18:09.941Z,99624.16
2022-09-21T04:21:12.060Z,99623.06
2022-09-21T04:24:14.204Z,99624.16
2022-09-21T04:27:16.434Z,99623.09
2022-09-21T04:30:18.748Z,99620.91
2022-09-21T04:33:22.142Z,99626.66
2022-09-21T04:36:25.611Z,99622.69
2022-09-21T04:39:27.741Z,99632.09
2022-09-21T04:42:30.165Z,99644.19
2022-09-21T04:45:32.481Z,99651.31
2022-09-21T04:48:34.648Z,99658.87
2022-09-21T04:51:37.038Z,99668.63
2022-09-21T04:54:39.193Z,99663.34
2022-09-21T04:57:41.489Z,99671.44
2022-09-21T05:00:44.043Z,99665.84
2022-09-21T05:03:46.291Z,99663.44
2022-09-21T05:06:48.567Z,99662.09
2022-09-21T05:10:02.680Z,99656.34
2022-09-21T05:13:04.878Z,99658.94
2022-09-21T05:16:07.231Z,99655.28
2022-09-21T05:19:09.561Z,99651.78
2022-09-21T05:22:11.764Z,99658.47
2022-09-21T05:25:13.993Z,99658.94
2022-09-21T05:28:19.898Z,99669.53
2022-09-21T05:31:37.261Z,99668.69
2022-09-21T05:35:17.060Z,99671.69
2022-09-21T05:38:20.231Z,99669.78
2022-09-21T05:41:23.109Z,99673.87
2022-09-21T05:44:25.641Z,99669.91
2022-09-21T05:47:38.523Z,99672.16
2022-09-21T05:50:51.720Z,99676.44
2022-09-21T05:54:05.790Z,99673.31
2022-09-21T05:57:34.318Z,99671.16
2022-09-21T06:00:43.827Z,99664.88
2022-09-21T06:03:48.628Z,99661.59
2022-09-21T06:06:50.763Z,99675.41
2022-09-21T06:09:52.898Z,99682.53
2022-09-21T06:12:55.040Z,99682.34
2022-09-21T06:15:58.503Z,99684.53
2022-09-21T06:19:00.692Z,99682.97
2022-09-21T06:22:02.985Z,99684.88
2022-09-21T06:25:05.563Z,99691.06
2022-09-21T06:28:10.466Z,99688.03
2022-09-21T06:31:12.703Z,99688.56
2022-09-21T06:34:14.922Z,99693.38
2022-09-21T06:37:17.076Z,99690.19
2022-09-21T06:40:19.275Z,99690.63
2022-09-21T06:43:21.844Z,99692.38
2022-09-21T06:46:24.244Z,99696.78
2022-09-21T06:49:28.703Z,99698.63
2022-09-21T06:52:30.928Z,99696.81
2022-09-21T06:55:34.577Z,99698.53
2022-09-21T06:58:37.752Z,99702.22
2022-09-21T07:01:40.041Z,99696.84
2022-09-21T07:04:42.254Z,99699.91
2022-09-21T07:07:44.420Z,99706.41
2022-09-21T07:10:46.569Z,99697.63
2022-09-21T07:13:49.013Z,99703.34
2022-09-21T07:16:51.218Z,99711.31
2022-09-21T07:19:53.386Z,99707.75
2022-09-21T07:22:55.601Z,99706.94
2022-09-21T07:26:01.850Z,99717.59
2022-09-21T07:29:03.975Z,99712.84
2022-09-21T07:32:06.116Z,99716.12
2022-09-21T07:35:08.453Z,99717.56
2022-09-21T07:38:10.610Z,99714.41
2022-09-21T07:41:14.258Z,99712.56
2022-09-21T07:44:17.000Z,99712.34
2022-09-21T07:47:19.226Z,99708.12
2022-09-21T07:50:22.076Z,99716.75
2022-09-21T07:53:24.384Z,99717.56
2022-09-21T07:56:26.649Z,99711.72
2022-09-21T07:59:30.193Z,99715.94
2022-09-21T08:02:32.486Z,99714.56
2022-09-21T08:05:34.702Z,99714.25
2022-09-21T08:08:36.894Z,99709.66
2022-09-21T08:11:43.354Z,99715.22
2022-09-21T08:14:45.726Z,99728.22
2022-09-21T08:17:48.807Z,99723.25
2022-09-21T08:20:59.325Z,99730.09
2022-09-21T08:24:01.601Z,99722.69
2022-09-21T08:27:03.955Z,99726.25
2022-09-21T08:30:07.723Z,99728.59
2022-09-21T08:33:10.060Z,99723.16
2022-09-21T08:36:12.224Z,99730.59
2022-09-21T08:39:14.412Z,99721.53
2022-09-21T08:42:38.166Z,99714.88
2022-09-21T08:45:43.597Z,99724.31
2022-09-21T08:49:07.396Z,99720.09
2022-09-21T08:52:15.774Z,99721.75
2022-09-21T08:55:20.473Z,99715.91
2022-09-21T08:58:27.771Z,99718.59
2022-09-21T09:01:44.758Z,99720.44
2022-09-21T09:04:57.619Z,99720.91
2022-09-21T09:08:21.852Z,99719.41
2022-09-21T09:11:48.293Z,99716.03
2022-09-21T09:15:14.518Z,99710.84
2022-09-21T09:18:51.634Z,99720.94
2022-09-21T09:21:55.388Z,99717.81
2022-09-21T09:25:02.450Z,99709.22
2022-09-21T09:28:34.978Z,99716.03
2022-09-21T09:31:37.907Z,99709.31
2022-09-21T09:35:12.580Z,99710.22
2022-09-21T09:38:26.128Z,99715.25
2022-09-21T09:41:46.231Z,99710.22
2022-09-21T09:45:22.797Z,99712.16
2022-09-21T09:49:02.733Z,99708.91
2022-09-21T09:52:06.382Z,99708.41
2022-09-21T09:55:26.048Z,99705.69
2022-09-21T09:58:50.857Z,99708.53
2022-09-21T10:02:28.799Z,99714.53
2022-09-21T10:05:30.986Z,99709.66
2022-09-21T10:08:43.656Z,99713.50
2022-09-21T10:11:46.662Z,99703.31
2022-09-21T10:14:51.795Z,99702.63
2022-09-21T10:18:12.144Z,99699.06
2022-09-21T10:21:47.575Z,99699.16
2022-09-21T10:24:53.891Z,99692.66
2022-09-21T10:27:56.305Z,99691.22
2022-09-21T10:31:21.549Z,99691.94
2022-09-21T10:34:25.526Z,99688.50
2022-09-21T10:37:41.458Z,99691.59
2022-09-21T10:40:44.212Z,99688.72
2022-09-21T10:43:46.519Z,99697.69
2022-09-21T10:46:50.057Z,99688.44
2022-09-21T10:49:54.617Z,99691.44
2022-09-21T10:53:02.327Z,99686.31
2022-09-21T10:56:16.418Z,99680.69
2022-09-21T10:59:19.367Z,99688.03
2022-09-21T11:02:31.365Z,99689.59
2022-09-21T11:05:38.839Z,99684.75
2022-09-21T11:08:52.538Z,99686.16
2022-09-21T11:12:17.792Z,99688.84
2022-09-21T11:15:38.039Z,99674.22
2022-09-21T11:18:58.610Z,99682.06
2022-09-21T11:22:06.410Z,99680.34
2022-09-21T11:25:28.785Z,99674.63
2022-09-21T11:28:34.086Z,99669.78
2022-09-21T11:32:05.840Z,99665.78
2022-09-21T11:35:53.187Z,99663.88
2022-09-21T11:39:23.600Z,99667.38
2022-09-21T11:42:34.654Z,99663.63
2022-09-21T11:46:08.993Z,99653.56
2022-09-21T11:49:29.740Z,99652.59
2022-09-21T11:52:59.282Z,99653.06
2022-09-21T11:56:10.260Z,99640.31
2022-09-21T11:59:17.933Z,99641.44
2022-09-21T12:02:25.786Z,99633.53
2022-09-21T12:05:44.214Z,99635.59
2022-09-21T12:08:49.038Z,99617.75
2022-09-21T12:12:09.472Z,99624.75
2022-09-21T12:15:20.502Z,99625.53
2022-09-21T12:18:47.965Z,99622.13
2022-09-21T12:21:55.601Z,99618.81
2022-09-21T12:25:02.237Z,99622.19
2022-09-21T12:28:07.058Z,99625.66
2022-09-21T12:31:14.861Z,99629.44
2022-09-21T12:34:24.149Z,99625.38
2022-09-21T12:37:38.642Z,99615.31
2022-09-21T12:40:58.479Z,99602.81
2022-09-21T12:44:04.879Z,99597.59
2022-09-21T12:47:11.522Z,99611.19
2022-09-21T12:50:20.530Z,99617.06
2022-09-21T12:53:25.675Z,99612.22
2022-09-21T12:56:40.445Z,99608.03
2022-09-21T12:59:54.005Z,99610.16
2022-09-21T13:03:07.056Z,99604.00
2022-09-21T13:06:53.350Z,99608.06
2022-09-21T13:09:55.748Z,99595.50
2022-09-21T13:13:02.251Z,99588.38
2022-09-21T13:16:06.564Z,99601.09
2022-09-21T13:19:26.340Z,99594.91
2022-09-21T13:22:33.399Z,99604.00
2022-09-21T13:25:37.788Z,99615.16
2022-09-21T13:29:03.190Z,99612.31
2022-09-21T13:32:11.536Z,99639.00
2022-09-21T13:35:51.013Z,99638.38
2022-09-21T13:38:53.212Z,99617.78
2022-09-21T13:42:04.631Z,99609.59
2022-09-21T13:45:11.065Z,99603.47
2022-09-21T13:48:25.183Z,99597.25
2022-09-21T13:51:27.362Z,99596.91
2022-09-21T13:54:38.184Z,99601.41
2022-09-21T13:57:46.322Z,99603.66
2022-09-21T14:01:00.580Z,99605.50
2022-09-21T14:04:40.429Z,99608.53
2022-09-21T14:07:42.948Z,99607.19
2022-09-21T14:11:08.130Z,99595.09
2022-09-21T14:14:28.277Z,99610.94
2022-09-21T14:17:37.761Z,99599.31
2022-09-21T14:20:40.003Z,99598.91
2022-09-21T14:23:42.218Z,99588.81
2022-09-21T14:26:54.121Z,99590.09
2022-09-21T14:30:20.090Z,99588.63
2022-09-21T14:33:30.022Z,99582.81
2022-09-21T14:36:42.090Z,99588.16
2022-09-21T14:39:45.636Z,99588.97
2022-09-21T14:42:49.545Z,99593.06
2022-09-21T14:46:13.076Z,99591.41
2022-09-21T14:49:21.643Z,99591.81
2022-09-21T14:52:49.748Z,99594.69
2022-09-21T14:55:51.915Z,99597.56
2022-09-21T14:58:59.441Z,99597.16
2022-09-21T15:02:11.027Z,99585.41
2022-09-21T15:05:43.353Z,99584.75
2022-09-21T15:09:13.230Z,99577.22
2022-09-21T15:12:22.072Z,99584.38
2022-09-21T15:15:32.655Z,99583.06
2022-09-21T15:18:41.211Z,99582.41
2022-09-21T15:21:46.078Z,99584.19
2022-09-21T15:24:53.586Z,99584.38
2022-09-21T15:27:55.891Z,99583.78
2022-09-21T15:30:58.198Z,99587.84
2022-09-21T15:34:00.863Z,99594.47
2022-09-21T15:37:16.444Z,99597.50
2022-09-21T15:40:25.078Z,99594.19
2022-09-21T15:43:27.342Z,99594.25
2022-09-21T15:46:29.627Z,99589.22
2022-09-21T15:49:34.420Z,99596.34
2022-09-21T15:52:40.273Z,99603.97
2022-09-21T15:55:47.371Z,99601.38
2022-09-21T15:58:50.076Z,99600.94
2022-09-21T16:01:55.905Z,99604.03
2022-09-21T16:04:59.369Z,99609.66
2022-09-21T16:08:33.829Z,99615.38
2022-09-21T16:11:37.776Z,99627.06
2022-09-21T16:14:57.975Z,99617.81
2022-09-21T16:18:05.353Z,99617.59
2022-09-21T16:21:20.461Z,99617.88
2022-09-21T16:24:23.179Z,99619.94
2022-09-21T16:27:28.366Z,99629.38
2022-09-21T16:30:48.194Z,99631.06
2022-09-21T16:33:50.306Z,99631.09
2022-09-21T16:36:54.785Z,99642.00
2022-09-21T16:39:58.322Z,99635.44
2022-09-21T16:43:01.070Z,99645.91
2022-09-21T16:46:03.491Z,99650.84
2022-09-21T16:49:06.642Z,99649.66
2022-09-21T16:52:10.724Z,99646.00
2022-09-21T16:55:12.885Z,99649.69
2022-09-21T16:58:15.131Z,99652.56
2022-09-21T17:01:20.545Z,99649.09
2022-09-21T17:04:25.699Z,99655.88
2022-09-21T17:07:28.122Z,99650.56
2022-09-21T17:10:37.933Z,99653.44
2022-09-21T17:13:40.111Z,99657.53
2022-09-21T17:17:05.968Z,99668.59
2022-09-21T17:20:35.492Z,99668.38
2022-09-21T17:23:37.985Z,99666.13
2022-09-21T17:26:40.124Z,99666.34
2022-09-21T17:29:48.034Z,99678.00
2022-09-21T17:32:50.684Z,99677.41
2022-09-21T17:35:53.178Z,99683.91
2022-09-21T17:38:56.425Z,99681.66
2022-09-21T17:42:13.778Z,99689.22
2022-09-21T17:45:57.368Z,99695.97
2022-09-21T17:48:59.761Z,99697.94
2022-09-21T17:52:21.046Z,99705.25
2022-09-21T17:55:23.474Z,99703.94
2022-09-21T17:58:45.354Z,99711.19
2022-09-21T18:01:47.711Z,99707.28
2022-09-21T18:04:54.043Z,99708.22
2022-09-21T18:07:56.934Z,99711.81
2022-09-21T18:11:23.263Z,99707.12
2022-09-21T18:14:40.327Z,99702.28
2022-09-21T18:18:19.960Z,99711.66
2022-09-21T18:21:27.973Z,99722.91
2022-09-21T18:24:34.021Z,99721.94
2022-09-21T18:27:36.414Z,99725.38
2022-09-21T18:30:43.330Z,99728.75
2022-09-21T18:33:48.342Z,99727.47
2022-09-21T18:37:15.626Z,99722.09
2022-09-21T18:40:38.803Z,99726.09
2022-09-21T18:44:13.058Z,99733.56
2022-09-21T18:47:27.971Z,99735.94
2022-09-21T18:50:42.487Z,99740.13
2022-09-21T18:53:55.995Z,99735.78
2022-09-21T18:56:59.224Z,99736.50
2022-09-21T19:00:01.689Z,99739.28
2022-09-21T19:03:23.077Z,99736.13
2022-09-21T19:07:13.617Z,99734.81
2022-09-21T19:10:35.322Z,99738.31
2022-09-21T19:14:03.767Z,99737.31
2022-09-21T19:17:17.932Z,99743.78
2022-09-21T19:20:35.334Z,99747.13
2022-09-21T19:24:00.567Z,99739.50
2022-09-21T19:27:34.567Z,99734.87
2022-09-21T19:30:37.660Z,99739.47
2022-09-21T19:33:50.068Z,99736.00
2022-09-21T19:36:52.943Z,99740.75
2022-09-21T19:39:55.288Z,99736.72
2022-09-21T19:43:06.265Z,99744.41
2022-09-21T19:46:27.225Z,99742.41
2022-09-21T19:49:40.564Z,99738.53
2022-09-21T19:52:43.234Z,99743.97
2022-09-21T19:56:03.888Z,99734.66
2022-09-21T19:59:24.690Z,99740.88
2022-09-21T20:02:39.994Z,99740.03
2022-09-21T20:05:59.538Z,99744.50
2022-09-21T20:09:10.621Z,99741.28
2022-09-21T20:12:19.068Z,99744.53
2022-09-21T20:15:28.798Z,99739.34
2022-09-21T20:19:03.447Z,99744.47
2022-09-21T20:22:12.572Z,99738.34
2022-09-21T20:25:21.730Z,99749.06
2022-09-21T20:28:24.564Z,99743.19
2022-09-21T20:31:26.865Z,99751.84
2022-09-21T20:34:29.058Z,99754.03
2022-09-21T20:37:31.269Z,99747.00
2022-09-21T20:40:33.473Z,99758.06
2022-09-21T20:43:35.917Z,99754.06
2022-09-21T20:46:38.103Z,99757.09
2022-09-21T20:49:40.277Z,99755.50
2022-09-21T20:52:43.122Z,99761.62
2022-09-21T20:55:56.839Z,99765.91
2022-09-21T20:58:59.345Z,99772.44
2022-09-21T21:02:01.846Z,99769.41
2022-09-21T21:05:04.607Z,99765.84
2022-09-21T21:08:07.696Z,99766.44
2022-09-21T21:11:10.844Z,99768.91
2022-09-21T21:14:13.062Z,99774.00
2022-09-21T21:17:15.407Z,99772.66
2022-09-21T21:20:17.690Z,99763.03
2022-09-21T21:23:19.840Z,99769.16
2022-09-21T21:26:29.459Z,99762.44
2022-09-21T21:29:46.311Z,99766.72
2022-09-21T21:32:52.268Z,99751.97
2022-09-21T21:35:54.433Z,99755.13
2022-09-21T21:38:56.641Z,99754.03
2022-09-21T21:41:58.934Z,99758.31
2022-09-21T21:45:01.074Z,99751.88
2022-09-21T21:48:03.320Z,99749.72
2022-09-21T21:51:06.823Z,99746.78
2022-09-21T21:54:08.983Z,99740.09
2022-09-21T21:57:11.218Z,99741.91
2022-09-21T22:00:13.678Z,99742.22
2022-09-21T22:03:15.872Z,99738.03
2022-09-21T22:06:18.078Z,99741.31
2022-09-21T22:09:22.171Z,99744.16
2022-09-21T22:12:26.156Z,99743.63
2022-09-21T22:15:30.114Z,99740.28
2022-09-21T22:18:32.685Z,99742.09
2022-09-21T22:21:40.373Z,99748.75
2022-09-21T22:24:42.523Z,99742.53
2022-09-21T22:27:44.673Z,99738.59
2022-09-21T22:30:48.935Z,99728.03
2022-09-21T22:33:51.163Z,99736.47
2022-09-21T22:36:53.903Z,99736.56
2022-09-21T22:39:57.218Z,99725.38
2022-09-21T22:42:59.342Z,99728.00
2022-09-21T22:46:02.070Z,99722.25
2022-09-21T22:49:04.348Z,99718.75
2022-09-21T22:52:06.528Z,99722.50
2022-09-21T22:55:09.176Z,99715.44
2022-09-21T22:58:11.339Z,99713.72
2022-09-21T23:01:18.241Z,99716.41
2022-09-21T23:04:21.235Z,99715.62
2022-09-21T23:07:23.474Z,99724.41
2022-09-21T23:10:26.640Z,99726.37
2022-09-21T23:13:28.820Z,99717.47
2022-09-21T23:16:31.636Z,99713.03
2022-09-21T23:19:33.955Z,99717.03
2022-09-21T23:22:36.079Z,99717.19
2022-09-21T23:25:38.204Z,99717.84
2022-09-21T23:28:42.624Z,99716.38
2022-09-21T23:31:46.034Z,99719.06
2022-09-21T23:34:48.558Z,99719.37
2022-09-21T23:37:50.817Z,99722.84
2022-09-21T23:40:53.183Z,99724.78
2022-09-21T23:43:55.900Z,99730.66
2022-09-21T23:46:58.070Z,99729.72
2022-09-21T23:50:00.255Z,99738.97
2022-09-21T23:53:03.811Z,99736.53
2022-09-21T23:56:07.410Z,99738.03
2022-09-21T23:59:09.954Z,99732.91
